createdAt,value
2022-11-04T00:01:46.883Z,2.88
2022-11-04T00:04:16.790Z,2.67
2022-11-04T00:06:44.884Z,4.68
2022-11-04T00:09:18.693Z,6.70
2022-11-04T00:12:05.544Z,5.38
2022-11-04T00:14:34.799Z,2.85
2022-11-04T00:17:21.857Z,2.70
2022-11-04T00:20:13.589Z,3.53
2022-11-04T00:25:47.241Z,5.03
2022-11-04T00:28:38.274Z,3.03
2022-11-04T00:31:26.463Z,3.03
2022-11-04T00:33:57.440Z,5.53
2022-11-04T00:36:26.077Z,4.72
2022-11-04T00:38:54.105Z,5.10
2022-11-04T00:41:30.254Z,2.53
2022-11-04T00:44:03.277Z,3.58
2022-11-04T00:46:32.514Z,4.82
2022-11-04T00:49:00.776Z,3.80
2022-11-04T00:51:28.703Z,4.00
2022-11-04T00:53:58.480Z,2.45
2022-11-04T00:56:26.479Z,5.00
2022-11-04T00:58:54.480Z,5.90
2022-11-04T01:01:22.576Z,5.60
2022-11-04T01:03:52.640Z,3.58
2022-11-04T01:06:22.068Z,3.40
2022-11-04T01:08:50.355Z,4.43
2022-11-04T01:11:18.079Z,3.15
2022-11-04T01:13:45.895Z,6.63
2022-11-04T01:16:14.231Z,3.60
2022-11-04T01:18:42.347Z,4.72
2022-11-04T01:21:13.501Z,3.30
2022-11-04T01:23:42.578Z,7.03
2022-11-04T01:26:19.711Z,3.92
2022-11-04T01:28:47.991Z,3.95
2022-11-04T01:31:22.101Z,4.03
2022-11-04T01:33:51.300Z,3.65
2022-11-04T01:36:19.887Z,5.00
2022-11-04T01:38:48.664Z,3.80
2022-11-04T01:41:22.686Z,5.82
2022-11-04T01:43:51.975Z,3.80
2022-11-04T01:46:38.315Z,2.83
2022-11-04T01:49:31.125Z,4.40
2022-11-04T01:52:09.514Z,3.15
2022-11-04T01:54:38.289Z,3.72
2022-11-04T01:57:08.959Z,4.55
2022-11-04T01:59:39.491Z,2.78
2022-11-04T02:02:07.994Z,3.05
2022-11-04T02:04:36.303Z,2.42
2022-11-04T02:07:07.266Z,2.33
2022-11-04T02:09:37.301Z,3.10
2022-11-04T02:12:24.091Z,2.95
2022-11-04T02:14:52.824Z,2.05
2022-11-04T02:17:20.861Z,3.33
2022-11-04T02:20:12.240Z,1.98
2022-11-04T02:22:53.917Z,1.90
2022-11-04T02:28:22.111Z,1.90
2022-11-04T02:31:10.949Z,2.90
2022-11-04T02:34:03.464Z,1.98
2022-11-04T02:36:41.838Z,3.40
2022-11-04T02:39:35.570Z,1.58
2022-11-04T02:42:43.100Z,1.30
2022-11-04T02:45:16.138Z,1.20
2022-11-04T02:47:54.271Z,1.48
2022-11-04T02:50:54.260Z,2.22
2022-11-04T02:53:30.246Z,2.33
2022-11-04T02:55:58.891Z,2.67
2022-11-04T02:58:42.287Z,2.40
2022-11-04T03:01:12.430Z,1.17
2022-11-04T03:03:43.883Z,1.67
2022-11-04T03:06:14.756Z,1.33
2022-11-04T03:08:48.479Z,1.10
2022-11-04T03:11:21.963Z,2.35
2022-11-04T03:14:06.968Z,3.15
2022-11-04T03:16:39.954Z,1.73
2022-11-04T03:19:14.213Z,1.50
2022-11-04T03:22:16.489Z,2.35
2022-11-04T03:24:46.162Z,2.67
2022-11-04T03:27:44.349Z,2.90
2022-11-04T03:33:04.526Z,3.90
2022-11-04T03:35:32.509Z,1.58
2022-11-04T03:38:00.842Z,2.35
2022-11-04T03:40:28.562Z,1.65
2022-11-04T03:42:59.980Z,3.58
2022-11-04T03:45:28.236Z,1.33
2022-11-04T03:47:57.259Z,1.45
2022-11-04T03:50:33.528Z,3.15
2022-11-04T03:53:01.503Z,1.58
2022-11-04T03:55:40.375Z,1.85
2022-11-04T03:58:29.704Z,1.17
2022-11-04T04:01:24.738Z,1.15
2022-11-04T04:04:01.787Z,2.45
2022-11-04T04:06:33.010Z,1.98
2022-11-04T04:09:20.513Z,1.55
2022-11-04T04:11:55.839Z,2.20
2022-11-04T04:14:47.178Z,1.33
2022-11-04T04:17:31.541Z,1.20
2022-11-04T04:20:02.135Z,1.45
2022-11-04T04:23:33.130Z,2.17
2022-11-04T04:26:22.556Z,1.50
2022-11-04T04:28:52.431Z,1.23
2022-11-04T04:31:39.306Z,1.38
2022-11-04T04:34:07.775Z,1.40
2022-11-04T04:36:42.323Z,1.92
2022-11-04T04:39:32.593Z,2.47
2022-11-04T04:42:19.131Z,0.95
2022-11-04T04:45:05.305Z,1.50
2022-11-04T04:47:45.741Z,1.08
2022-11-04T04:50:18.501Z,2.08
2022-11-04T04:52:49.037Z,0.82
2022-11-04T04:55:17.296Z,0.88
2022-11-04T04:57:45.535Z,0.82
2022-11-04T05:00:19.148Z,0.75
2022-11-04T05:02:47.186Z,0.85
2022-11-04T05:07:48.050Z,1.27
2022-11-04T05:10:17.532Z,0.85
2022-11-04T05:13:04.248Z,1.42
2022-11-04T05:15:33.152Z,0.90
2022-11-04T05:18:08.271Z,1.02
2022-11-04T05:20:38.609Z,0.80
2022-11-04T05:23:06.902Z,1.00
2022-11-04T05:25:34.816Z,1.00
2022-11-04T05:28:03.280Z,1.58
2022-11-04T05:30:31.127Z,0.80
2022-11-04T05:33:01.764Z,2.55
2022-11-04T05:35:33.503Z,1.00
2022-11-04T05:38:01.737Z,1.00
2022-11-04T05:40:29.685Z,1.02
2022-11-04T05:43:00.095Z,0.68
2022-11-04T05:45:28.845Z,1.30
2022-11-04T05:48:05.069Z,0.93
2022-11-04T05:50:34.442Z,2.42
2022-11-04T05:53:02.800Z,1.67
2022-11-04T05:55:30.622Z,0.82
2022-11-04T05:57:59.450Z,0.75
2022-11-04T06:00:28.226Z,1.35
2022-11-04T06:02:59.273Z,1.23
2022-11-04T06:05:28.232Z,1.23
2022-11-04T06:07:57.104Z,1.33
2022-11-04T06:10:25.608Z,1.35
2022-11-04T06:12:54.070Z,1.58
2022-11-04T06:15:21.985Z,0.88
2022-11-04T06:17:52.249Z,0.68
2022-11-04T06:20:20.293Z,1.92
2022-11-04T06:22:48.110Z,1.02
2022-11-04T06:25:16.020Z,1.77
2022-11-04T06:27:43.802Z,1.58
2022-11-04T06:30:13.016Z,1.15
2022-11-04T06:32:40.908Z,1.02
2022-11-04T06:35:11.848Z,0.88
2022-11-04T06:37:39.948Z,0.95
2022-11-04T06:40:08.623Z,0.77
2022-11-04T06:42:36.552Z,0.90
2022-11-04T06:45:04.599Z,0.82
2022-11-04T06:47:32.506Z,1.63
2022-11-04T06:50:00.388Z,0.77
2022-11-04T06:52:28.243Z,1.85
2022-11-04T06:54:56.067Z,1.70
2022-11-04T06:57:23.760Z,3.08
2022-11-04T06:59:52.549Z,1.90
2022-11-04T07:02:20.608Z,2.50
2022-11-04T07:04:48.763Z,1.02
2022-11-04T07:07:16.803Z,1.10
2022-11-04T07:09:44.825Z,0.80
2022-11-04T07:12:12.919Z,0.95
2022-11-04T07:14:40.857Z,2.30
2022-11-04T07:17:08.920Z,0.98
2022-11-04T07:19:36.948Z,0.52
2022-11-04T07:22:04.945Z,4.60
2022-11-04T07:24:33.319Z,1.77
2022-11-04T07:29:29.943Z,0.75
2022-11-04T07:31:57.846Z,1.50
2022-11-04T07:34:25.509Z,0.93
2022-11-04T07:36:53.683Z,11.05
2022-11-04T07:39:21.748Z,0.85
2022-11-04T07:41:49.812Z,1.42
2022-11-04T07:44:17.965Z,1.17
2022-11-04T07:46:45.666Z,2.35
2022-11-04T07:49:13.566Z,1.92
2022-11-04T07:51:41.228Z,0.77
2022-11-04T07:54:09.191Z,1.10
2022-11-04T07:56:37.090Z,1.35
2022-11-04T07:59:07.610Z,1.45
2022-11-04T08:01:35.668Z,0.98
2022-11-04T08:04:05.239Z,1.58
2022-11-04T08:06:33.300Z,1.98
2022-11-04T08:09:01.286Z,1.17
2022-11-04T08:11:29.259Z,1.10
2022-11-04T08:13:57.403Z,1.27
2022-11-04T08:16:30.122Z,1.90
2022-11-04T08:19:02.829Z,1.70
2022-11-04T08:21:32.629Z,0.80
2022-11-04T08:24:03.499Z,1.75
2022-11-04T08:26:32.078Z,1.67
2022-11-04T08:29:01.558Z,1.75
2022-11-04T08:31:31.600Z,1.42
2022-11-04T08:33:59.450Z,1.23
2022-11-04T08:36:30.368Z,1.50
2022-11-04T08:38:59.537Z,1.00
2022-11-04T08:41:29.476Z,0.73
2022-11-04T08:44:01.126Z,1.33
2022-11-04T08:46:31.714Z,1.23
2022-11-04T08:48:59.677Z,2.10
2022-11-04T08:51:28.437Z,1.58
2022-11-04T08:53:56.684Z,1.25
2022-11-04T08:56:27.210Z,0.68
2022-11-04T08:58:55.382Z,1.00
2022-11-04T09:01:24.066Z,0.90
2022-11-04T09:03:52.120Z,0.90
2022-11-04T09:06:29.320Z,1.50
2022-11-04T09:09:02.837Z,0.57
2022-11-04T09:11:34.797Z,3.25
2022-11-04T09:14:02.953Z,0.77
2022-11-04T09:16:31.913Z,2.10
2022-11-04T09:19:00.237Z,1.10
2022-11-04T09:21:28.500Z,0.90
2022-11-04T09:23:56.678Z,1.27
2022-11-04T09:26:25.976Z,1.35
2022-11-04T09:28:58.292Z,1.27
2022-11-04T09:31:27.831Z,2.13
2022-11-04T09:33:56.539Z,1.70
2022-11-04T09:36:25.041Z,1.52
2022-11-04T09:38:53.375Z,1.48
2022-11-04T09:41:49.082Z,1.40
2022-11-04T09:45:00.032Z,1.98
2022-11-04T09:47:32.188Z,3.65
2022-11-04T09:50:01.509Z,2.05
2022-11-04T09:52:32.204Z,1.50
2022-11-04T09:55:17.239Z,1.55
2022-11-04T09:57:45.471Z,1.33
2022-11-04T10:00:17.120Z,2.22
2022-11-04T10:03:15.799Z,3.08
2022-11-04T10:06:19.206Z,5.32
2022-11-04T10:09:11.459Z,2.60
2022-11-04T10:11:54.430Z,5.85
2022-11-04T10:14:51.085Z,3.25
2022-11-04T10:17:24.949Z,4.32
2022-11-04T10:20:13.655Z,1.75
2022-11-04T10:22:58.823Z,1.75
2022-11-04T10:25:39.473Z,1.48
2022-11-04T10:28:15.053Z,6.72
2022-11-04T10:30:44.543Z,1.98
2022-11-04T10:33:27.992Z,4.07
2022-11-04T10:36:01.162Z,2.88
2022-11-04T10:38:51.721Z,2.85
2022-11-04T10:41:26.662Z,3.03
2022-11-04T10:44:22.646Z,2.03
2022-11-04T10:46:55.543Z,2.42
2022-11-04T10:50:26.362Z,4.05
2022-11-04T10:52:42.787Z,1.60
2022-11-04T10:55:41.052Z,2.47
2022-11-04T10:58:28.485Z,6.78
2022-11-04T11:00:58.004Z,4.05
2022-11-04T11:03:32.252Z,6.68
2022-11-04T11:06:25.553Z,10.90
2022-11-04T11:08:55.426Z,1.60
2022-11-04T11:11:42.848Z,2.78
2022-11-04T11:14:29.063Z,3.60
2022-11-04T11:16:58.147Z,3.08
2022-11-04T11:19:27.282Z,1.85
2022-11-04T11:21:57.359Z,2.03
2022-11-04T11:24:27.539Z,2.88
2022-11-04T11:26:58.197Z,2.78
2022-11-04T11:29:42.357Z,4.15
2022-11-04T11:32:33.559Z,4.88
2022-11-04T11:35:04.342Z,1.75
2022-11-04T11:37:34.325Z,2.30
2022-11-04T11:40:02.290Z,1.88
2022-11-04T11:42:30.015Z,3.53
2022-11-04T11:45:00.268Z,1.65
2022-11-04T11:47:31.646Z,2.30
2022-11-04T11:50:20.749Z,5.20
2022-11-04T11:52:50.258Z,2.67
2022-11-04T11:55:37.572Z,2.08
2022-11-04T12:01:47.038Z,4.50
2022-11-04T12:10:51.032Z,5.30
2022-11-04T12:13:28.682Z,2.30
2022-11-04T12:16:03.552Z,3.80
2022-11-04T12:18:53.028Z,2.70
2022-11-04T12:21:35.248Z,3.75
2022-11-04T12:24:13.620Z,3.60
2022-11-04T12:26:59.623Z,3.67
2022-11-04T12:29:56.296Z,2.60
2022-11-04T12:32:51.443Z,7.80
2022-11-04T12:35:49.490Z,7.80
2022-11-04T12:38:29.038Z,3.50
2022-11-04T12:41:41.902Z,1.95
2022-11-04T12:44:42.326Z,5.85
2022-11-04T12:47:26.670Z,2.28
2022-11-04T12:50:18.834Z,1.58
2022-11-04T12:53:17.994Z,2.60
2022-11-04T12:56:07.253Z,2.40
2022-11-04T12:58:50.129Z,2.33
2022-11-04T13:01:47.125Z,6.18
2022-11-04T13:04:19.819Z,2.00
2022-11-04T13:06:50.215Z,1.17
2022-11-04T13:09:27.430Z,1.92
2022-11-04T13:11:58.558Z,8.43
2022-11-04T13:14:29.878Z,1.77
2022-11-04T13:17:07.445Z,2.17
2022-11-04T13:19:39.320Z,2.33
2022-11-04T13:22:14.734Z,1.02
2022-11-04T13:24:53.059Z,6.38
2022-11-04T13:27:24.407Z,3.10
2022-11-04T13:30:04.466Z,4.75
2022-11-04T13:32:48.846Z,5.03
2022-11-04T13:35:22.771Z,1.50
2022-11-04T13:38:12.990Z,4.90
2022-11-04T13:40:57.484Z,5.65
2022-11-04T13:43:38.923Z,1.63
2022-11-04T13:49:00.366Z,1.92
2022-11-04T13:51:48.852Z,8.55
2022-11-04T13:54:28.323Z,2.40
2022-11-04T13:57:33.045Z,3.65
2022-11-04T14:00:15.889Z,3.53
2022-11-04T14:02:54.934Z,1.70
2022-11-04T14:05:28.893Z,3.45
2022-11-04T14:08:01.074Z,9.98
2022-11-04T14:11:04.808Z,1.88
2022-11-04T14:13:39.577Z,4.97
2022-11-04T14:16:30.903Z,2.83
2022-11-04T14:18:59.369Z,2.53
2022-11-04T14:21:29.759Z,4.13
2022-11-04T14:24:00.513Z,4.57
2022-11-04T14:26:40.496Z,3.55
2022-11-04T14:29:23.028Z,1.27
2022-11-04T14:31:53.014Z,3.13
2022-11-04T14:34:39.949Z,1.95
2022-11-04T14:37:21.835Z,1.42
2022-11-04T14:39:57.407Z,1.58
2022-11-04T14:42:44.868Z,1.45
2022-11-04T14:45:32.282Z,1.20
2022-11-04T14:48:16.026Z,1.50
2022-11-04T14:50:51.008Z,1.13
2022-11-04T14:53:33.073Z,4.40
2022-11-04T14:56:24.758Z,7.82
2022-11-04T15:01:35.397Z,2.72
2022-11-04T15:04:21.777Z,1.58
2022-11-04T15:07:21.057Z,2.47
2022-11-04T15:09:50.467Z,2.53
2022-11-04T15:12:38.341Z,3.00
2022-11-04T15:15:30.069Z,6.80
2022-11-04T15:18:09.706Z,3.45
2022-11-04T15:20:46.702Z,3.72
2022-11-04T15:23:17.322Z,5.07
2022-11-04T15:25:47.572Z,10.30
2022-11-04T15:28:40.732Z,3.67
2022-11-04T15:31:19.215Z,1.73
2022-11-04T15:33:49.013Z,2.60
2022-11-04T15:36:32.055Z,2.95
2022-11-04T15:39:22.446Z,3.42
2022-11-04T15:42:16.042Z,2.40
2022-11-04T15:44:52.321Z,3.17
2022-11-04T15:47:20.729Z,3.13
2022-11-04T15:49:50.528Z,2.60
2022-11-04T15:52:24.152Z,3.65
2022-11-04T15:54:53.946Z,5.43
2022-11-04T15:57:44.287Z,3.20
2022-11-04T16:00:15.486Z,5.13
2022-11-04T16:02:57.873Z,3.05
2022-11-04T16:05:40.314Z,5.18
2022-11-04T16:08:21.805Z,2.08
2022-11-04T16:10:50.564Z,1.95
2022-11-04T16:13:21.677Z,2.03
2022-11-04T16:16:09.262Z,2.60
2022-11-04T16:18:43.335Z,1.75
2022-11-04T16:21:35.469Z,3.25
2022-11-04T16:24:09.756Z,1.48
2022-11-04T16:26:44.675Z,1.27
2022-11-04T16:29:22.668Z,2.42
2022-11-04T16:32:20.022Z,1.92
2022-11-04T16:34:49.900Z,1.40
2022-11-04T16:37:18.333Z,2.55
2022-11-04T16:39:46.843Z,1.60
2022-11-04T16:42:15.113Z,3.75
2022-11-04T16:44:51.402Z,2.45
2022-11-04T16:47:20.365Z,2.38
2022-11-04T16:49:48.905Z,2.50
2022-11-04T16:52:23.184Z,3.33
2022-11-04T16:54:51.366Z,6.65
2022-11-04T16:57:19.288Z,2.17
2022-11-04T16:59:47.201Z,2.42
2022-11-04T17:02:28.097Z,2.55
2022-11-04T17:04:56.201Z,2.35
2022-11-04T17:07:46.906Z,2.67
2022-11-04T17:10:19.617Z,3.15
2022-11-04T17:12:47.881Z,5.20
2022-11-04T17:15:16.574Z,4.88
2022-11-04T17:17:45.685Z,2.60
2022-11-04T17:20:17.775Z,2.90
2022-11-04T17:22:47.532Z,2.10
2022-11-04T17:25:21.113Z,2.88
2022-11-04T17:27:49.628Z,2.05
2022-11-04T17:30:18.391Z,3.20
2022-11-04T17:32:48.515Z,3.22
2022-11-04T17:35:17.541Z,2.28
2022-11-04T17:37:45.450Z,3.38
2022-11-04T17:40:16.419Z,2.67
2022-11-04T17:43:06.951Z,3.28
2022-11-04T17:45:39.354Z,2.97
2022-11-04T17:48:08.240Z,4.72
2022-11-04T17:50:38.172Z,2.70
2022-11-04T17:53:06.766Z,3.00
2022-11-04T17:55:39.705Z,3.78
2022-11-04T17:58:07.619Z,2.92
2022-11-04T18:00:35.863Z,4.72
2022-11-04T18:03:03.582Z,2.67
2022-11-04T18:05:31.392Z,2.63
2022-11-04T18:07:59.246Z,3.50
2022-11-04T18:10:26.908Z,2.83
2022-11-04T18:12:54.732Z,3.47
2022-11-04T18:15:22.561Z,2.63
2022-11-04T18:17:51.017Z,3.90
2022-11-04T18:20:18.780Z,5.05
2022-11-04T18:22:46.562Z,3.55
2022-11-04T18:25:14.391Z,5.68
2022-11-04T18:27:42.243Z,4.05
2022-11-04T18:30:10.760Z,6.07
2022-11-04T18:32:38.553Z,5.55
2022-11-04T18:35:07.003Z,4.28
2022-11-04T18:37:34.763Z,4.35
2022-11-04T18:40:02.504Z,5.05
2022-11-04T18:42:30.332Z,4.05
2022-11-04T18:44:58.278Z,3.47
2022-11-04T18:47:26.851Z,3.22
2022-11-04T18:49:57.736Z,4.30
2022-11-04T18:52:25.501Z,5.32
2022-11-04T18:54:53.265Z,3.65
2022-11-04T18:57:20.973Z,4.90
2022-11-04T18:59:48.702Z,5.03
2022-11-04T19:02:23.682Z,4.40
2022-11-04T19:04:52.803Z,6.18
2022-11-04T19:07:20.906Z,4.63
2022-11-04T19:09:49.244Z,4.90
2022-11-04T19:12:36.654Z,5.60
2022-11-04T19:15:04.894Z,4.57
2022-11-04T19:17:32.689Z,5.53
2022-11-04T19:20:00.433Z,6.15
2022-11-04T19:22:28.307Z,4.43
2022-11-04T19:24:56.196Z,5.10
2022-11-04T19:27:25.322Z,4.60
2022-11-04T19:29:53.675Z,4.97
2022-11-04T19:32:21.905Z,5.38
2022-11-04T19:34:49.914Z,3.80
2022-11-04T19:37:17.909Z,4.72
2022-11-04T19:39:45.856Z,6.05
2022-11-04T19:42:35.657Z,4.25
2022-11-04T19:45:03.888Z,5.32
2022-11-04T19:47:32.264Z,5.07
2022-11-04T19:50:00.546Z,5.25
2022-11-04T19:52:28.560Z,6.70
2022-11-04T19:54:56.359Z,4.70
2022-11-04T19:57:24.360Z,7.60
2022-11-04T19:59:52.540Z,4.90
2022-11-04T20:02:20.808Z,4.03
2022-11-04T20:04:50.191Z,5.75
2022-11-04T20:07:17.936Z,6.05
2022-11-04T20:09:45.718Z,3.83
2022-11-04T20:12:32.020Z,5.30
2022-11-04T20:14:59.853Z,4.72
2022-11-04T20:17:27.731Z,4.03
2022-11-04T20:19:55.649Z,7.32
2022-11-04T20:22:23.503Z,6.57
2022-11-04T20:24:51.314Z,3.88
2022-11-04T20:27:19.346Z,6.22
2022-11-04T20:29:47.491Z,5.50
2022-11-04T20:32:15.410Z,6.32
2022-11-04T20:34:43.372Z,8.40
2022-11-04T20:37:12.720Z,6.13
2022-11-04T20:39:40.768Z,11.55
2022-11-04T20:42:08.624Z,7.47
2022-11-04T20:44:36.508Z,5.07
2022-11-04T20:47:04.288Z,4.70
2022-11-04T20:49:31.939Z,5.88
2022-11-04T20:51:59.704Z,6.90
2022-11-04T20:54:27.469Z,5.78
2022-11-04T20:56:55.189Z,4.70
2022-11-04T20:59:23.003Z,6.57
2022-11-04T21:01:50.987Z,7.13
2022-11-04T21:04:20.240Z,7.20
2022-11-04T21:06:52.208Z,6.38
2022-11-04T21:09:21.689Z,4.32
2022-11-04T21:11:50.472Z,6.25
2022-11-04T21:14:19.831Z,10.98
2022-11-04T21:16:48.204Z,7.05
2022-11-04T21:19:16.553Z,6.28
2022-11-04T21:21:45.317Z,6.60
2022-11-04T21:24:15.472Z,5.60
2022-11-04T21:26:44.688Z,6.43
2022-11-04T21:29:16.498Z,14.23
2022-11-04T21:31:45.152Z,5.45
2022-11-04T21:34:12.993Z,5.43
2022-11-04T21:36:40.846Z,6.05
2022-11-04T21:39:11.345Z,10.45
2022-11-04T21:41:39.451Z,7.20
2022-11-04T21:44:11.466Z,9.57
2022-11-04T21:46:39.486Z,6.70
2022-11-04T21:49:07.335Z,9.52
2022-11-04T21:51:35.928Z,7.22
2022-11-04T21:54:08.104Z,9.07
2022-11-04T21:56:36.474Z,6.82
2022-11-04T21:59:05.408Z,7.97
2022-11-04T22:01:33.926Z,7.47
2022-11-04T22:04:02.746Z,9.27
2022-11-04T22:06:34.610Z,7.50
2022-11-04T22:09:06.536Z,8.35
2022-11-04T22:14:07.104Z,10.57
2022-11-04T22:16:38.023Z,11.02
2022-11-04T22:19:07.957Z,7.80
2022-11-04T22:21:38.630Z,7.35
2022-11-04T22:24:06.912Z,7.30
2022-11-04T22:26:34.838Z,8.57
2022-11-04T22:29:04.018Z,9.13
2022-11-04T22:31:34.228Z,8.18
2022-11-04T22:34:03.387Z,7.63
2022-11-04T22:36:32.737Z,6.68
2022-11-04T22:39:00.809Z,8.82
2022-11-04T22:41:31.895Z,5.78
2022-11-04T22:44:00.104Z,10.55
2022-11-04T22:46:34.488Z,6.55
2022-11-04T22:49:02.475Z,7.88
2022-11-04T22:51:31.533Z,6.18
2022-11-04T22:54:06.529Z,5.63
2022-11-04T22:56:36.216Z,10.45
2022-11-04T22:59:04.597Z,6.53
2022-11-04T23:01:33.927Z,10.45
2022-11-04T23:04:02.065Z,5.32
2022-11-04T23:06:30.162Z,5.20
2022-11-04T23:09:00.466Z,6.22
2022-11-04T23:11:47.475Z,9.68
2022-11-04T23:14:36.449Z,6.95
2022-11-04T23:17:31.721Z,9.40
2022-11-04T23:19:59.969Z,7.10
2022-11-04T23:22:46.389Z,4.95
2022-11-04T23:25:14.888Z,7.82
2022-11-04T23:28:09.162Z,7.18
2022-11-04T23:30:42.824Z,10.35
2022-11-04T23:33:14.648Z,4.28
2022-11-04T23:36:06.195Z,5.88
2022-11-04T23:38:35.687Z,6.05
2022-11-04T23:41:24.468Z,5.38
2022-11-04T23:43:52.379Z,5.65
2022-11-04T23:46:42.992Z,8.18
2022-11-04T23:49:31.113Z,6.18
2022-11-04T23:52:18.399Z,5.45
2022-11-04T23:55:04.915Z,8.18
2022-11-04T23:57:51.351Z,6.43
